sensor_id;sensor_type;location;lat;lon;timestamp;pressure;altitude;pressure_sealevel;temperature;humidity
46015;BME280;36844;51.898;-0.874;2023-05-27T00:01:52;101941.78;;;19.59;
46015;BME280;36844;51.898;-0.874;2023-05-27T00:04:17;101939.09;;;19.59;
46015;BME280;36844;51.898;-0.874;2023-05-27T00:06:42;101941.03;;;19.58;
46015;BME280;36844;51.898;-0.874;2023-05-27T00:09:08;101937.56;;;19.58;
46015;BME280;36844;51.898;-0.874;2023-05-27T00:11:34;101933.66;;;19.55;
46015;BME280;36844;51.898;-0.874;2023-05-27T00:13:59;101931.72;;;19.56;
46015;BME280;36844;51.898;-0.874;2023-05-27T00:16:24;101925.53;;;19.55;
46015;BME280;36844;51.898;-0.874;2023-05-27T00:18:50;101919.75;;;19.53;
46015;BME280;36844;51.898;-0.874;2023-05-27T00:21:15;101919.75;;;19.53;
46015;BME280;36844;51.898;-0.874;2023-05-27T00:23:44;101914.69;;;19.52;
46015;BME280;36844;51.898;-0.874;2023-05-27T00:26:09;101913.16;;;19.51;
46015;BME280;36844;51.898;-0.874;2023-05-27T00:28:35;101912.00;;;19.52;
46015;BME280;36844;51.898;-0.874;2023-05-27T00:31:00;101915.06;;;19.50;
46015;BME280;36844;51.898;-0.874;2023-05-27T00:33:25;101905.41;;;19.49;
46015;BME280;36844;51.898;-0.874;2023-05-27T00:35:51;101902.72;;;19.49;
46015;BME280;36844;51.898;-0.874;2023-05-27T00:38:16;101907.34;;;19.49;
46015;BME280;36844;51.898;-0.874;2023-05-27T00:40:41;101899.56;;;19.47;
46015;BME280;36844;51.898;-0.874;2023-05-27T00:43:06;101896.88;;;19.47;
46015;BME280;36844;51.898;-0.874;2023-05-27T00:45:31;101892.66;;;19.46;
46015;BME280;36844;51.898;-0.874;2023-05-27T00:47:57;101897.28;;;19.46;
46015;BME280;36844;51.898;-0.874;2023-05-27T00:50:23;101883.31;;;19.44;
46015;BME280;36844;51.898;-0.874;2023-05-27T00:52:50;101886.81;;;19.44;
46015;BME280;36844;51.898;-0.874;2023-05-27T00:55:16;101885.25;;;19.43;
46015;BME280;36844;51.898;-0.874;2023-05-27T00:57:41;101887.97;;;19.43;
46015;BME280;36844;51.898;-0.874;2023-05-27T01:00:08;101894.53;;;19.42;
46015;BME280;36844;51.898;-0.874;2023-05-27T01:02:37;101888.69;;;19.40;
46015;BME280;36844;51.898;-0.874;2023-05-27T01:05:05;101883.28;;;19.40;
46015;BME280;36844;51.898;-0.874;2023-05-27T01:07:41;101881.78;;;19.39;
46015;BME280;36844;51.898;-0.874;2023-05-27T01:10:15;101891.00;;;19.38;
46015;BME280;36844;51.898;-0.874;2023-05-27T01:12:49;101883.25;;;19.37;
46015;BME280;36844;51.898;-0.874;2023-05-27T01:15:16;101884.03;;;19.37;
46015;BME280;36844;51.898;-0.874;2023-05-27T01:17:42;101875.53;;;19.35;
46015;BME280;36844;51.898;-0.874;2023-05-27T01:20:09;101874.75;;;19.35;
46015;BME280;36844;51.898;-0.874;2023-05-27T01:22:35;101871.25;;;19.34;
46015;BME280;36844;51.898;-0.874;2023-05-27T01:25:01;101870.47;;;19.34;
46015;BME280;36844;51.898;-0.874;2023-05-27T01:27:26;101860.84;;;19.33;
46015;BME280;36844;51.898;-0.874;2023-05-27T01:29:52;101860.84;;;19.33;
46015;BME280;36844;51.898;-0.874;2023-05-27T01:37:14;101838.03;;;19.30;
46015;BME280;36844;51.898;-0.874;2023-05-27T01:39:41;101836.47;;;19.29;
46015;BME280;36844;51.898;-0.874;2023-05-27T01:42:06;101831.06;;;19.29;
46015;BME280;36844;51.898;-0.874;2023-05-27T01:44:32;101832.22;;;19.28;
46015;BME280;36844;51.898;-0.874;2023-05-27T01:46:58;101834.16;;;19.28;
46015;BME280;36844;51.898;-0.874;2023-05-27T01:49:24;101829.88;;;19.27;
46015;BME280;36844;51.898;-0.874;2023-05-27T01:51:49;101824.47;;;19.27;
46015;BME280;36844;51.898;-0.874;2023-05-27T01:54:14;101825.63;;;19.26;
46015;BME280;36844;51.898;-0.874;2023-05-27T01:56:39;101831.03;;;19.26;
46015;BME280;36844;51.898;-0.874;2023-05-27T01:59:05;101823.28;;;19.24;
46015;BME280;36844;51.898;-0.874;2023-05-27T02:01:30;101825.22;;;19.24;
46015;BME280;36844;51.898;-0.874;2023-05-27T02:03:55;101822.53;;;19.24;
46015;BME280;36844;51.898;-0.874;2023-05-27T02:06:21;101822.91;;;19.22;
46015;BME280;36844;51.898;-0.874;2023-05-27T02:08:46;101822.91;;;19.22;
46015;BME280;36844;51.898;-0.874;2023-05-27T02:11:11;101822.50;;;19.20;
46015;BME280;36844;51.898;-0.874;2023-05-27T02:13:37;101822.50;;;19.20;
46015;BME280;36844;51.898;-0.874;2023-05-27T02:16:02;101818.25;;;19.19;
46015;BME280;36844;51.898;-0.874;2023-05-27T02:18:27;101812.84;;;19.19;
46015;BME280;36844;51.898;-0.874;2023-05-27T02:20:52;101808.56;;;19.18;
46015;BME280;36844;51.898;-0.874;2023-05-27T02:23:18;101820.50;;;19.17;
46015;BME280;36844;51.898;-0.874;2023-05-27T02:25:43;101809.72;;;19.17;
46015;BME280;36844;51.898;-0.874;2023-05-27T02:28:08;101808.91;;;19.17;
46015;BME280;36844;51.898;-0.874;2023-05-27T02:30:33;101818.97;;;19.16;
46015;BME280;36844;51.898;-0.874;2023-05-27T02:32:58;101816.28;;;19.16;
46015;BME280;36844;51.898;-0.874;2023-05-27T02:35:24;101813.16;;;19.14;
46015;BME280;36844;51.898;-0.874;2023-05-27T02:37:49;101808.53;;;19.15;
46015;BME280;36844;51.898;-0.874;2023-05-27T02:40:27;101804.28;;;19.14;
46015;BME280;36844;51.898;-0.874;2023-05-27T02:42:53;101803.47;;;19.13;
46015;BME280;36844;51.898;-0.874;2023-05-27T02:45:18;101810.78;;;19.13;
46015;BME280;36844;51.898;-0.874;2023-05-27T02:47:43;101806.59;;;19.12;
46015;BME280;36844;51.898;-0.874;2023-05-27T02:50:08;101804.22;;;19.10;
46015;BME280;36844;51.898;-0.874;2023-05-27T02:52:34;101809.63;;;19.10;
46015;BME280;36844;51.898;-0.874;2023-05-27T02:54:59;101802.66;;;19.09;
46015;BME280;36844;51.898;-0.874;2023-05-27T02:57:24;101804.63;;;19.09;
46015;BME280;36844;51.898;-0.874;2023-05-27T02:59:49;101808.06;;;19.09;
46015;BME280;36844;51.898;-0.874;2023-05-27T03:02:14;101810.38;;;19.07;
46015;BME280;36844;51.898;-0.874;2023-05-27T03:04:40;101804.56;;;19.05;
46015;BME280;36844;51.898;-0.874;2023-05-27T03:07:05;101801.88;;;19.05;
46015;BME280;36844;51.898;-0.874;2023-05-27T03:09:30;101809.97;;;19.05;
46015;BME280;36844;51.898;-0.874;2023-05-27T03:11:56;101805.72;;;19.04;
46015;BME280;36844;51.898;-0.874;2023-05-27T03:14:21;101806.84;;;19.03;
46015;BME280;36844;51.898;-0.874;2023-05-27T03:16:46;101814.97;;;19.03;
46015;BME280;36844;51.898;-0.874;2023-05-27T03:19:11;101806.06;;;19.03;
46015;BME280;36844;51.898;-0.874;2023-05-27T03:21:37;101813.38;;;19.02;
46015;BME280;36844;51.898;-0.874;2023-05-27T03:24:02;101811.09;;;19.01;
46015;BME280;36844;51.898;-0.874;2023-05-27T03:26:27;101816.50;;;19.01;
46015;BME280;36844;51.898;-0.874;2023-05-27T03:28:53;101804.13;;;19.00;
46015;BME280;36844;51.898;-0.874;2023-05-27T03:31:18;101800.63;;;18.99;
46015;BME280;36844;51.898;-0.874;2023-05-27T03:33:43;101808.72;;;18.99;
46015;BME280;36844;51.898;-0.874;2023-05-27T03:36:09;101799.09;;;18.98;
46015;BME280;36844;51.898;-0.874;2023-05-27T03:38:34;101808.34;;;18.97;
46015;BME280;36844;51.898;-0.874;2023-05-27T03:40:59;101794.84;;;18.97;
46015;BME280;36844;51.898;-0.874;2023-05-27T03:43:25;101795.97;;;18.96;
46015;BME280;36844;51.898;-0.874;2023-05-27T03:45:50;101789.00;;;18.95;
46015;BME280;36844;51.898;-0.874;2023-05-27T03:48:15;101790.94;;;18.95;
46015;BME280;36844;51.898;-0.874;2023-05-27T03:50:40;101790.94;;;18.95;
46015;BME280;36844;51.898;-0.874;2023-05-27T03:53:05;101802.50;;;18.95;
46015;BME280;36844;51.898;-0.874;2023-05-27T03:55:31;101800.97;;;18.94;
46015;BME280;36844;51.898;-0.874;2023-05-27T03:57:56;101791.31;;;18.93;
46015;BME280;36844;51.898;-0.874;2023-05-27T04:00:21;101788.63;;;18.93;
46015;BME280;36844;51.898;-0.874;2023-05-27T04:02:47;101791.31;;;18.93;
46015;BME280;36844;51.898;-0.874;2023-05-27T04:05:12;101793.63;;;18.91;
46015;BME280;36844;51.898;-0.874;2023-05-27T04:07:37;101794.75;;;18.90;
46015;BME280;36844;51.898;-0.874;2023-05-27T04:10:02;101794.75;;;18.90;
46015;BME280;36844;51.898;-0.874;2023-05-27T04:12:28;101799.34;;;18.90;
46015;BME280;36844;51.898;-0.874;2023-05-27T04:14:53;101784.31;;;18.89;
46015;BME280;36844;51.898;-0.874;2023-05-27T04:17:18;101789.72;;;18.89;
46015;BME280;36844;51.898;-0.874;2023-05-27T04:19:43;101793.56;;;18.88;
46015;BME280;36844;51.898;-0.874;2023-05-27T04:22:09;101789.31;;;18.87;
46015;BME280;36844;51.898;-0.874;2023-05-27T04:24:34;101792.00;;;18.87;
46015;BME280;36844;51.898;-0.874;2023-05-27T04:27:00;101800.88;;;18.87;
46015;BME280;36844;51.898;-0.874;2023-05-27T04:29:26;101788.53;;;18.86;
46015;BME280;36844;51.898;-0.874;2023-05-27T04:31:52;101797.78;;;18.85;
46015;BME280;36844;51.898;-0.874;2023-05-27T04:34:17;101795.06;;;18.85;
46015;BME280;36844;51.898;-0.874;2023-05-27T04:36:42;101792.38;;;18.85;
46015;BME280;36844;51.898;-0.874;2023-05-27T04:39:09;101797.00;;;18.85;
46015;BME280;36844;51.898;-0.874;2023-05-27T04:41:36;101789.28;;;18.83;
46015;BME280;36844;51.898;-0.874;2023-05-27T04:44:01;101788.47;;;18.83;
46015;BME280;36844;51.898;-0.874;2023-05-27T04:46:27;101782.28;;;18.82;
46015;BME280;36844;51.898;-0.874;2023-05-27T04:48:52;101786.94;;;18.82;
46015;BME280;36844;51.898;-0.874;2023-05-27T04:51:17;101792.34;;;18.82;
46015;BME280;36844;51.898;-0.874;2023-05-27T04:53:44;101792.34;;;18.82;
46015;BME280;36844;51.898;-0.874;2023-05-27T04:56:10;101794.28;;;18.81;
46015;BME280;36844;51.898;-0.874;2023-05-27T04:58:39;101791.59;;;18.81;
46015;BME280;36844;51.898;-0.874;2023-05-27T05:01:04;101795.41;;;18.80;
46015;BME280;36844;51.898;-0.874;2023-05-27T05:03:30;101793.84;;;18.79;
46015;BME280;36844;51.898;-0.874;2023-05-27T05:06:02;101799.25;;;18.79;
46015;BME280;36844;51.898;-0.874;2023-05-27T05:08:28;101797.69;;;18.78;
46015;BME280;36844;51.898;-0.874;2023-05-27T05:10:53;101792.31;;;18.78;
46015;BME280;36844;51.898;-0.874;2023-05-27T05:13:18;101799.63;;;18.77;
46015;BME280;36844;51.898;-0.874;2023-05-27T05:15:43;101800.78;;;18.77;
46015;BME280;36844;51.898;-0.874;2023-05-27T05:18:09;101798.84;;;18.77;
46015;BME280;36844;51.898;-0.874;2023-05-27T05:20:35;101804.59;;;18.75;
46015;BME280;36844;51.898;-0.874;2023-05-27T05:23:00;101799.97;;;18.76;
46015;BME280;36844;51.898;-0.874;2023-05-27T05:25:25;101810.78;;;18.76;
46015;BME280;36844;51.898;-0.874;2023-05-27T05:27:51;101806.50;;;18.75;
46015;BME280;36844;51.898;-0.874;2023-05-27T05:30:16;101803.03;;;18.74;
46015;BME280;36844;51.898;-0.874;2023-05-27T05:32:42;101809.22;;;18.75;
46015;BME280;36844;51.898;-0.874;2023-05-27T05:35:07;101799.59;;;18.74;
46015;BME280;36844;51.898;-0.874;2023-05-27T05:37:32;101799.59;;;18.74;
46015;BME280;36844;51.898;-0.874;2023-05-27T05:39:57;101800.72;;;18.73;
46015;BME280;36844;51.898;-0.874;2023-05-27T05:42:23;101793.75;;;18.72;
46015;BME280;36844;51.898;-0.874;2023-05-27T05:44:50;101797.25;;;18.72;
46015;BME280;36844;51.898;-0.874;2023-05-27T05:47:15;101799.16;;;18.72;
46015;BME280;36844;51.898;-0.874;2023-05-27T05:49:41;101801.84;;;18.72;
46015;BME280;36844;51.898;-0.874;2023-05-27T05:52:06;101799.16;;;18.72;
46015;BME280;36844;51.898;-0.874;2023-05-27T05:54:31;101796.47;;;18.72;
46015;BME280;36844;51.898;-0.874;2023-05-27T05:56:56;101806.13;;;18.73;
46015;BME280;36844;51.898;-0.874;2023-05-27T05:59:22;101799.94;;;18.72;
46015;BME280;36844;51.898;-0.874;2023-05-27T06:01:47;101806.13;;;18.73;
46015;BME280;36844;51.898;-0.874;2023-05-27T06:04:12;101803.03;;;18.74;
46015;BME280;36844;51.898;-0.874;2023-05-27T06:06:37;101798.41;;;18.75;
46015;BME280;36844;51.898;-0.874;2023-05-27T06:09:04;101797.28;;;18.76;
46015;BME280;36844;51.898;-0.874;2023-05-27T06:11:30;101792.66;;;18.77;
46015;BME280;36844;51.898;-0.874;2023-05-27T06:13:56;101803.09;;;18.78;
46015;BME280;36844;51.898;-0.874;2023-05-27T06:16:21;101793.84;;;18.79;
46015;BME280;36844;51.898;-0.874;2023-05-27T06:18:46;101788.09;;;18.81;
46015;BME280;36844;51.898;-0.874;2023-05-27T06:21:12;101782.69;;;18.81;
46015;BME280;36844;51.898;-0.874;2023-05-27T06:23:37;101787.69;;;18.82;
46015;BME280;36844;51.898;-0.874;2023-05-27T06:26:02;101784.66;;;18.84;
46015;BME280;36844;51.898;-0.874;2023-05-27T06:28:28;101778.09;;;18.85;
46015;BME280;36844;51.898;-0.874;2023-05-27T06:30:53;101780.41;;;18.86;
46015;BME280;36844;51.898;-0.874;2023-05-27T06:33:18;101781.22;;;18.87;
46015;BME280;36844;51.898;-0.874;2023-05-27T06:35:43;101788.94;;;18.88;
46015;BME280;36844;51.898;-0.874;2023-05-27T06:38:09;101785.09;;;18.89;
46015;BME280;36844;51.898;-0.874;2023-05-27T06:40:34;101780.13;;;18.91;
46015;BME280;36844;51.898;-0.874;2023-05-27T06:42:59;101779.34;;;18.91;
46015;BME280;36844;51.898;-0.874;2023-05-27T06:45:25;101780.88;;;18.92;
46015;BME280;36844;51.898;-0.874;2023-05-27T06:47:50;101770.47;;;18.94;
46015;BME280;36844;51.898;-0.874;2023-05-27T06:50:15;101773.19;;;18.94;
46015;BME280;36844;51.898;-0.874;2023-05-27T06:52:40;101768.19;;;18.96;
46015;BME280;36844;51.898;-0.874;2023-05-27T06:55:05;101767.41;;;18.95;
46015;BME280;36844;51.898;-0.874;2023-05-27T06:57:31;101773.25;;;18.97;
46015;BME280;36844;51.898;-0.874;2023-05-27T06:59:56;101763.19;;;18.98;
46015;BME280;36844;51.898;-0.874;2023-05-27T07:02:21;101763.19;;;18.98;
46015;BME280;36844;51.898;-0.874;2023-05-27T07:04:47;101760.13;;;18.99;
46015;BME280;36844;51.898;-0.874;2023-05-27T07:07:12;101764.41;;;19.00;
46015;BME280;36844;51.898;-0.874;2023-05-27T07:09:37;101759.34;;;18.99;
46015;BME280;36844;51.898;-0.874;2023-05-27T07:12:02;101760.84;;;18.93;
46015;BME280;36844;51.898;-0.874;2023-05-27T07:14:28;101755.38;;;18.86;
46015;BME280;36844;51.898;-0.874;2023-05-27T07:16:53;101751.41;;;18.76;
46015;BME280;36844;51.898;-0.874;2023-05-27T07:19:18;101751.66;;;18.67;
46015;BME280;36844;51.898;-0.874;2023-05-27T07:21:43;101752.03;;;18.62;
46015;BME280;36844;51.898;-0.874;2023-05-27T07:24:09;101750.03;;;18.59;
46015;BME280;36844;51.898;-0.874;2023-05-27T07:26:35;101749.25;;;18.59;
46015;BME280;36844;51.898;-0.874;2023-05-27T07:29:01;101741.53;;;18.57;
46015;BME280;36844;51.898;-0.874;2023-05-27T07:31:27;101737.69;;;18.58;
46015;BME280;36844;51.898;-0.874;2023-05-27T07:33:52;101738.81;;;18.57;
46015;BME280;36844;51.898;-0.874;2023-05-27T07:36:17;101739.25;;;18.59;
46015;BME280;36844;51.898;-0.874;2023-05-27T07:38:42;101738.09;;;18.60;
46015;BME280;36844;51.898;-0.874;2023-05-27T07:41:08;101731.56;;;18.61;
46015;BME280;36844;51.898;-0.874;2023-05-27T07:43:33;101731.97;;;18.63;
46015;BME280;36844;51.898;-0.874;2023-05-27T07:45:58;101738.91;;;18.64;
46015;BME280;36844;51.898;-0.874;2023-05-27T07:48:23;101743.56;;;18.67;
46015;BME280;36844;51.898;-0.874;2023-05-27T07:50:49;101727.03;;;18.69;
46015;BME280;36844;51.898;-0.874;2023-05-27T07:53:14;101730.09;;;18.71;
46015;BME280;36844;51.898;-0.874;2023-05-27T07:55:39;101730.53;;;18.73;
46015;BME280;36844;51.898;-0.874;2023-05-27T07:58:04;101729.00;;;18.75;
46015;BME280;36844;51.898;-0.874;2023-05-27T08:00:29;101732.13;;;18.77;
46015;BME280;36844;51.898;-0.874;2023-05-27T08:02:55;101731.75;;;18.79;
46015;BME280;36844;51.898;-0.874;2023-05-27T08:05:20;101728.72;;;18.81;
46015;BME280;36844;51.898;-0.874;2023-05-27T08:07:46;101723.69;;;18.83;
46015;BME280;36844;51.898;-0.874;2023-05-27T08:10:11;101724.09;;;18.85;
46015;BME280;36844;51.898;-0.874;2023-05-27T08:12:36;101719.09;;;18.87;
46015;BME280;36844;51.898;-0.874;2023-05-27T08:15:02;101710.63;;;18.88;
46015;BME280;36844;51.898;-0.874;2023-05-27T08:17:27;101719.16;;;18.90;
46015;BME280;36844;51.898;-0.874;2023-05-27T08:19:52;101712.63;;;18.91;
46015;BME280;36844;51.898;-0.874;2023-05-27T08:22:18;101719.97;;;18.94;
46015;BME280;36844;51.898;-0.874;2023-05-27T08:24:43;101716.09;;;18.95;
46015;BME280;36844;51.898;-0.874;2023-05-27T08:27:15;101705.75;;;18.97;
46015;BME280;36844;51.898;-0.874;2023-05-27T08:29:41;101710.38;;;19.00;
46015;BME280;36844;51.898;-0.874;2023-05-27T08:32:06;101706.53;;;19.01;
46015;BME280;36844;51.898;-0.874;2023-05-27T08:34:31;101702.31;;;19.04;
46015;BME280;36844;51.898;-0.874;2023-05-27T08:36:56;101697.28;;;19.06;
46015;BME280;36844;51.898;-0.874;2023-05-27T08:39:22;101710.09;;;19.09;
46015;BME280;36844;51.898;-0.874;2023-05-27T08:41:47;101696.19;;;19.10;
46015;BME280;36844;51.898;-0.874;2023-05-27T08:44:13;101699.34;;;19.12;
46015;BME280;36844;51.898;-0.874;2023-05-27T08:46:38;101690.03;;;19.13;
46015;BME280;36844;51.898;-0.874;2023-05-27T08:49:05;101693.97;;;19.16;
46015;BME280;36844;51.898;-0.874;2023-05-27T08:51:31;101686.22;;;19.18;
46015;BME280;36844;51.898;-0.874;2023-05-27T08:53:57;101684.31;;;19.18;
46015;BME280;36844;51.898;-0.874;2023-05-27T08:56:22;101679.31;;;19.20;
46015;BME280;36844;51.898;-0.874;2023-05-27T08:58:48;101675.44;;;19.21;
46015;BME280;36844;51.898;-0.874;2023-05-27T09:01:19;101677.03;;;19.22;
46015;BME280;36844;51.898;-0.874;2023-05-27T09:03:46;101673.94;;;19.24;
46015;BME280;36844;51.898;-0.874;2023-05-27T09:06:11;101668.16;;;19.25;
46015;BME280;36844;51.898;-0.874;2023-05-27T09:08:37;101670.47;;;19.27;
46015;BME280;36844;51.898;-0.874;2023-05-27T09:11:02;101664.69;;;19.28;
46015;BME280;36844;51.898;-0.874;2023-05-27T09:13:28;101660.09;;;19.29;
46015;BME280;36844;51.898;-0.874;2023-05-27T09:16:00;101660.88;;;19.29;
46015;BME280;36844;51.898;-0.874;2023-05-27T09:18:29;101657.78;;;19.31;
46015;BME280;36844;51.898;-0.874;2023-05-27T09:20:57;101651.25;;;19.32;
46015;BME280;36844;51.898;-0.874;2023-05-27T09:23:23;101646.59;;;19.32;
46015;BME280;36844;51.898;-0.874;2023-05-27T09:25:48;101647.00;;;19.34;
46015;BME280;36844;51.898;-0.874;2023-05-27T09:28:24;101634.28;;;19.35;
46015;BME280;36844;51.898;-0.874;2023-05-27T09:30:59;101632.34;;;19.35;
46015;BME280;36844;51.898;-0.874;2023-05-27T09:33:31;101626.94;;;19.35;
46015;BME280;36844;51.898;-0.874;2023-05-27T09:35:57;101629.25;;;19.37;
46015;BME280;36844;51.898;-0.874;2023-05-27T09:38:22;101624.28;;;19.39;
46015;BME280;36844;51.898;-0.874;2023-05-27T09:40:47;101623.09;;;19.40;
46015;BME280;36844;51.898;-0.874;2023-05-27T09:43:13;101624.66;;;19.41;
46015;BME280;36844;51.898;-0.874;2023-05-27T09:45:40;101614.63;;;19.41;
46015;BME280;36844;51.898;-0.874;2023-05-27T09:48:05;101614.28;;;19.43;
46015;BME280;36844;51.898;-0.874;2023-05-27T09:50:32;101613.06;;;19.44;
46015;BME280;36844;51.898;-0.874;2023-05-27T09:52:57;101606.91;;;19.43;
46015;BME280;36844;51.898;-0.874;2023-05-27T09:55:23;101614.63;;;19.45;
46015;BME280;36844;51.898;-0.874;2023-05-27T09:57:48;101608.09;;;19.46;
46015;BME280;36844;51.898;-0.874;2023-05-27T10:00:14;101606.94;;;19.47;
46015;BME280;36844;51.898;-0.874;2023-05-27T10:02:44;101603.47;;;19.46;
46015;BME280;36844;51.898;-0.874;2023-05-27T10:05:11;101602.28;;;19.47;
46015;BME280;36844;51.898;-0.874;2023-05-27T10:07:38;101609.25;;;19.48;
46015;BME280;36844;51.898;-0.874;2023-05-27T10:10:07;101607.34;;;19.49;
46015;BME280;36844;51.898;-0.874;2023-05-27T10:12:33;101599.22;;;19.49;
46015;BME280;36844;51.898;-0.874;2023-05-27T10:14:58;101595.38;;;19.50;
46015;BME280;36844;51.898;-0.874;2023-05-27T10:17:24;101600.00;;;19.49;
46015;BME280;36844;51.898;-0.874;2023-05-27T10:19:53;101591.91;;;19.49;
46015;BME280;36844;51.898;-0.874;2023-05-27T10:22:20;101588.03;;;19.50;
46015;BME280;36844;51.898;-0.874;2023-05-27T10:24:46;101593.44;;;19.50;
46015;BME280;36844;51.898;-0.874;2023-05-27T10:27:12;101592.28;;;19.51;
46015;BME280;36844;51.898;-0.874;2023-05-27T10:29:38;101580.72;;;19.51;
46015;BME280;36844;51.898;-0.874;2023-05-27T10:32:03;101581.47;;;19.51;
46015;BME280;36844;51.898;-0.874;2023-05-27T10:34:35;101581.13;;;19.53;
46015;BME280;36844;51.898;-0.874;2023-05-27T10:37:01;101570.31;;;19.53;
46015;BME280;36844;51.898;-0.874;2023-05-27T10:39:26;101575.72;;;19.53;
46015;BME280;36844;51.898;-0.874;2023-05-27T10:41:52;101573.00;;;19.53;
46015;BME280;36844;51.898;-0.874;2023-05-27T10:46:58;101568.38;;;19.53;
46015;BME280;36844;51.898;-0.874;2023-05-27T10:49:24;101568.38;;;19.53;
46015;BME280;36844;51.898;-0.874;2023-05-27T10:51:50;101568.38;;;19.53;
46015;BME280;36844;51.898;-0.874;2023-05-27T10:54:16;101559.09;;;19.54;
46015;BME280;36844;51.898;-0.874;2023-05-27T10:56:48;101556.41;;;19.54;
46015;BME280;36844;51.898;-0.874;2023-05-27T10:59:18;101561.81;;;19.54;
46015;BME280;36844;51.898;-0.874;2023-05-27T11:01:45;101561.81;;;19.54;
46015;BME280;36844;51.898;-0.874;2023-05-27T11:04:11;101556.41;;;19.54;
46015;BME280;36844;51.898;-0.874;2023-05-27T11:06:37;101551.00;;;19.54;
46015;BME280;36844;51.898;-0.874;2023-05-27T11:09:02;101547.13;;;19.55;
46015;BME280;36844;51.898;-0.874;2023-05-27T11:11:27;101541.72;;;19.55;
46015;BME280;36844;51.898;-0.874;2023-05-27T11:13:53;101541.72;;;19.55;
46015;BME280;36844;51.898;-0.874;2023-05-27T11:16:18;101529.00;;;19.56;
46015;BME280;36844;51.898;-0.874;2023-05-27T11:18:45;101529.78;;;19.56;
46015;BME280;36844;51.898;-0.874;2023-05-27T11:21:11;101529.78;;;19.56;
46015;BME280;36844;51.898;-0.874;2023-05-27T11:23:37;101525.16;;;19.57;
46015;BME280;36844;51.898;-0.874;2023-05-27T11:26:10;101520.88;;;19.56;
46015;BME280;36844;51.898;-0.874;2023-05-27T11:28:35;101523.59;;;19.56;
46015;BME280;36844;51.898;-0.874;2023-05-27T11:31:03;101523.59;;;19.56;
46015;BME280;36844;51.898;-0.874;2023-05-27T11:33:30;101518.19;;;19.56;
46015;BME280;36844;51.898;-0.874;2023-05-27T11:36:03;101524.38;;;19.56;
46015;BME280;36844;51.898;-0.874;2023-05-27T11:38:28;101518.97;;;19.56;
46015;BME280;36844;51.898;-0.874;2023-05-27T11:40:53;101515.09;;;19.57;
46015;BME280;36844;51.898;-0.874;2023-05-27T11:43:18;101514.34;;;19.57;
46015;BME280;36844;51.898;-0.874;2023-05-27T11:45:44;101517.78;;;19.57;
46015;BME280;36844;51.898;-0.874;2023-05-27T11:48:09;101512.38;;;19.57;
46015;BME280;36844;51.898;-0.874;2023-05-27T11:50:34;101506.22;;;19.57;
46015;BME280;36844;51.898;-0.874;2023-05-27T11:53:02;101500.03;;;19.56;
46015;BME280;36844;51.898;-0.874;2023-05-27T11:55:29;101506.59;;;19.55;
46015;BME280;36844;51.898;-0.874;2023-05-27T11:57:54;101496.56;;;19.56;
46015;BME280;36844;51.898;-0.874;2023-05-27T12:00:20;101493.47;;;19.54;
46015;BME280;36844;51.898;-0.874;2023-05-27T12:02:45;101486.13;;;19.51;
46015;BME280;36844;51.898;-0.874;2023-05-27T12:05:11;101478.75;;;19.48;
46015;BME280;36844;51.898;-0.874;2023-05-27T12:07:36;101489.56;;;19.48;
46015;BME280;36844;51.898;-0.874;2023-05-27T12:10:05;101476.81;;;19.45;
46015;BME280;36844;51.898;-0.874;2023-05-27T12:12:30;101472.56;;;19.44;
46015;BME280;36844;51.898;-0.874;2023-05-27T12:14:59;101478.38;;;19.42;
46015;BME280;36844;51.898;-0.874;2023-05-27T12:17:24;101476.81;;;19.41;
46015;BME280;36844;51.898;-0.874;2023-05-27T12:19:49;101466.38;;;19.40;
46015;BME280;36844;51.898;-0.874;2023-05-27T12:22:14;101468.69;;;19.38;
46015;BME280;36844;51.898;-0.874;2023-05-27T12:24:40;101458.28;;;19.36;
46015;BME280;36844;51.898;-0.874;2023-05-27T12:27:05;101462.88;;;19.36;
46015;BME280;36844;51.898;-0.874;2023-05-27T12:29:30;101456.75;;;19.35;
46015;BME280;36844;51.898;-0.874;2023-05-27T12:31:56;101448.63;;;19.35;
46015;BME280;36844;51.898;-0.874;2023-05-27T12:34:21;101454.03;;;19.35;
46015;BME280;36844;51.898;-0.874;2023-05-27T12:36:47;101447.84;;;19.35;
46015;BME280;36844;51.898;-0.874;2023-05-27T12:39:12;101450.16;;;19.36;
46015;BME280;36844;51.898;-0.874;2023-05-27T12:41:37;101443.22;;;19.35;
46015;BME280;36844;51.898;-0.874;2023-05-27T12:44:03;101441.28;;;19.36;
46015;BME280;36844;51.898;-0.874;2023-05-27T12:46:28;101439.34;;;19.36;
46015;BME280;36844;51.898;-0.874;2023-05-27T12:48:53;101431.25;;;19.36;
46015;BME280;36844;51.898;-0.874;2023-05-27T12:51:19;101430.09;;;19.37;
46015;BME280;36844;51.898;-0.874;2023-05-27T12:53:44;101427.38;;;19.37;
46015;BME280;36844;51.898;-0.874;2023-05-27T12:56:09;101429.72;;;19.39;
46015;BME280;36844;51.898;-0.874;2023-05-27T12:58:34;101421.63;;;19.39;
46015;BME280;36844;51.898;-0.874;2023-05-27T13:01:00;101417.00;;;19.39;
46015;BME280;36844;51.898;-0.874;2023-05-27T13:03:25;101418.50;;;19.40;
46015;BME280;36844;51.898;-0.874;2023-05-27T13:05:51;101422.41;;;19.39;
46015;BME280;36844;51.898;-0.874;2023-05-27T13:08:16;101419.28;;;19.41;
46015;BME280;36844;51.898;-0.874;2023-05-27T13:10:41;101411.97;;;19.41;
46015;BME280;36844;51.898;-0.874;2023-05-27T13:13:06;101403.84;;;19.41;
46015;BME280;36844;51.898;-0.874;2023-05-27T13:15:32;101401.16;;;19.41;
46015;BME280;36844;51.898;-0.874;2023-05-27T13:17:57;101395.38;;;19.43;
46015;BME280;36844;51.898;-0.874;2023-05-27T13:20:25;101399.22;;;19.42;
46015;BME280;36844;51.898;-0.874;2023-05-27T13:22:50;101387.28;;;19.43;
46015;BME280;36844;51.898;-0.874;2023-05-27T13:25:16;101383.38;;;19.44;
46015;BME280;36844;51.898;-0.874;2023-05-27T13:27:42;101390.75;;;19.43;
46015;BME280;36844;51.898;-0.874;2023-05-27T13:30:07;101386.09;;;19.44;
46015;BME280;36844;51.898;-0.874;2023-05-27T13:32:33;101380.69;;;19.44;